createdAt,value
2017-02-04T00:00:34.409Z,0
2017-02-04T00:01:44.640Z,0
2017-02-04T00:02:54.885Z,0
2017-02-04T00:04:05.687Z,0
2017-02-04T00:05:16.241Z,0
2017-02-04T00:06:25.703Z,0
2017-02-04T00:07:35.586Z,0
2017-02-04T00:08:46.227Z,0
2017-02-04T00:09:56.458Z,0
2017-02-04T00:11:06.697Z,0
2017-02-04T00:12:17.343Z,0
2017-02-04T00:13:27.194Z,0
2017-02-04T00:14:37.054Z,0
2017-02-04T00:15:47.255Z,0
2017-02-04T00:16:57.516Z,0
2017-02-04T00:18:08.154Z,0
2017-02-04T00:19:18.397Z,0
2017-02-04T00:20:28.650Z,0
2017-02-04T00:21:39.241Z,0
2017-02-04T00:22:49.086Z,0
2017-02-04T00:23:58.946Z,0
2017-02-04T00:25:09.203Z,0
2017-02-04T00:26:19.075Z,0
2017-02-04T00:27:29.690Z,0
2017-02-04T00:28:39.953Z,0
2017-02-04T00:29:50.216Z,0
2017-02-04T00:31:00.465Z,0
2017-02-04T00:32:10.708Z,0
2017-02-04T00:33:21.233Z,0
2017-02-04T00:34:31.877Z,0
2017-02-04T00:35:42.130Z,0
2017-02-04T00:36:52.375Z,0
2017-02-04T00:38:03.051Z,0
2017-02-04T00:39:13.548Z,0
2017-02-04T00:40:24.179Z,0
2017-02-04T00:41:34.434Z,0
2017-02-04T00:42:45.072Z,0
2017-02-04T00:43:55.321Z,0
2017-02-04T00:45:05.476Z,0
2017-02-04T00:46:16.133Z,0
2017-02-04T00:47:26.778Z,0
2017-02-04T00:48:37.428Z,0
2017-02-04T00:49:47.673Z,0
2017-02-04T00:50:58.995Z,0
2017-02-04T00:52:08.864Z,0
2017-02-04T00:53:19.113Z,0
2017-02-04T00:54:29.353Z,0
2017-02-04T00:55:39.623Z,0
2017-02-04T00:56:50.118Z,0
2017-02-04T00:58:00.021Z,0
2017-02-04T00:59:09.893Z,0
2017-02-04T01:00:20.161Z,0
2017-02-04T01:01:30.415Z,0
2017-02-04T01:02:41.018Z,0
2017-02-04T01:03:50.890Z,0
2017-02-04T01:05:00.751Z,0
2017-02-04T01:06:11.387Z,0
2017-02-04T01:07:22.042Z,0
2017-02-04T01:08:32.819Z,0
2017-02-04T01:09:43.462Z,0
2017-02-04T01:10:54.096Z,0
2017-02-04T01:12:04.345Z,0
2017-02-04T01:13:14.591Z,0
2017-02-04T01:14:25.492Z,0
2017-02-04T01:15:36.130Z,0
2017-02-04T01:16:45.991Z,0
2017-02-04T01:17:55.853Z,0
2017-02-04T01:19:06.132Z,0
2017-02-04T01:20:16.531Z,0
2017-02-04T01:21:27.171Z,0
2017-02-04T01:22:37.418Z,0
2017-02-04T01:23:47.687Z,0
2017-02-04T01:24:57.916Z,0
2017-02-04T01:26:08.125Z,0
2017-02-04T01:27:18.779Z,0
2017-02-04T01:28:29.051Z,0
2017-02-04T01:29:39.699Z,0
2017-02-04T01:30:50.340Z,0
2017-02-04T01:32:01.274Z,0
2017-02-04T01:33:11.908Z,0
2017-02-04T01:34:22.562Z,0
2017-02-04T01:35:32.412Z,0
2017-02-04T01:36:42.293Z,0
2017-02-04T01:37:52.321Z,0
2017-02-04T01:39:02.176Z,0
2017-02-04T01:40:12.437Z,0
2017-02-04T01:41:22.677Z,0
2017-02-04T01:42:32.934Z,0
2017-02-04T01:43:43.528Z,0
2017-02-04T01:44:53.766Z,0
2017-02-04T01:46:03.640Z,0
2017-02-04T01:47:14.278Z,0
2017-02-04T01:48:24.546Z,0
2017-02-04T01:49:35.069Z,0
2017-02-04T01:50:45.707Z,0
2017-02-04T01:51:55.555Z,0
2017-02-04T01:53:05.025Z,0
2017-02-04T01:54:15.275Z,0
2017-02-04T01:55:26.063Z,0
2017-02-04T01:56:36.328Z,0
2017-02-04T01:57:46.171Z,0
2017-02-04T01:58:56.809Z,0
2017-02-04T02:00:07.080Z,0
2017-02-04T02:01:17.687Z,0
2017-02-04T02:02:28.324Z,0
2017-02-04T02:03:39.005Z,0
2017-02-04T02:04:49.654Z,0
2017-02-04T02:05:59.910Z,0
2017-02-04T02:07:10.426Z,0
2017-02-04T02:08:21.079Z,0
2017-02-04T02:09:31.364Z,0
2017-02-04T02:10:41.613Z,0
2017-02-04T02:11:52.235Z,0
2017-02-04T02:13:02.351Z,0
2017-02-04T02:14:12.216Z,0
2017-02-04T02:15:22.858Z,0
2017-02-04T02:16:33.505Z,0
2017-02-04T02:17:43.776Z,0
2017-02-04T02:18:54.786Z,0
2017-02-04T02:20:05.039Z,0
2017-02-04T02:21:15.295Z,0
2017-02-04T02:22:25.152Z,0
2017-02-04T02:23:35.792Z,0
2017-02-04T02:24:46.827Z,0
2017-02-04T02:25:57.449Z,0
2017-02-04T02:27:06.939Z,0
2017-02-04T02:28:17.227Z,0
2017-02-04T02:29:27.865Z,0
2017-02-04T02:30:38.478Z,0
2017-02-04T02:31:49.148Z,0
2017-02-04T02:32:59.413Z,0
2017-02-04T02:34:09.653Z,0
2017-02-04T02:35:19.916Z,0
2017-02-04T02:36:30.426Z,0
2017-02-04T02:37:40.278Z,0
2017-02-04T02:38:50.540Z,0
2017-02-04T02:40:00.391Z,0
2017-02-04T02:41:11.027Z,0
2017-02-04T02:42:21.567Z,0
2017-02-04T02:43:31.826Z,0
2017-02-04T02:44:42.095Z,0
2017-02-04T02:45:52.734Z,0
2017-02-04T02:47:03.404Z,0
2017-02-04T02:48:13.749Z,0
2017-02-04T02:49:24.382Z,0
2017-02-04T02:50:34.613Z,0
2017-02-04T02:51:43.694Z,0
2017-02-04T02:52:53.949Z,0
2017-02-04T02:54:04.761Z,0
2017-02-04T02:55:14.637Z,0
2017-02-04T02:56:25.051Z,0
2017-02-04T02:57:35.312Z,0
2017-02-04T02:58:45.957Z,0
2017-02-04T02:59:56.921Z,0
2017-02-04T03:01:06.809Z,0
2017-02-04T03:02:17.070Z,0
2017-02-04T03:03:27.330Z,0
2017-02-04T03:04:38.235Z,0
2017-02-04T03:05:48.376Z,0
2017-02-04T03:06:58.236Z,0
2017-02-04T03:08:08.489Z,0
2017-02-04T03:09:18.346Z,0
2017-02-04T03:10:28.982Z,0
2017-02-04T03:11:39.970Z,0
2017-02-04T03:12:50.635Z,0
2017-02-04T03:14:01.293Z,0
2017-02-04T03:15:11.559Z,0
2017-02-04T03:16:22.214Z,0
2017-02-04T03:17:32.373Z,0
2017-02-04T03:18:42.668Z,0
2017-02-04T03:19:52.528Z,0
2017-02-04T03:21:02.015Z,0
2017-02-04T03:22:12.304Z,0
2017-02-04T03:23:23.104Z,0
2017-02-04T03:24:33.359Z,0
2017-02-04T03:25:43.599Z,0
2017-02-04T03:26:53.479Z,0
2017-02-04T03:28:04.113Z,0
2017-02-04T03:29:14.997Z,0
2017-02-04T03:30:25.271Z,0
2017-02-04T03:31:35.931Z,0
2017-02-04T03:32:46.577Z,0
2017-02-04T03:33:56.813Z,0
2017-02-04T03:35:07.245Z,0
2017-02-04T03:36:17.500Z,0
2017-02-04T03:37:27.743Z,0
2017-02-04T03:38:37.626Z,0
2017-02-04T03:39:47.862Z,0
2017-02-04T03:40:57.698Z,0
2017-02-04T03:42:08.320Z,0
2017-02-04T03:43:18.957Z,0
2017-02-04T03:44:28.451Z,0
2017-02-04T03:45:38.691Z,0
2017-02-04T03:46:49.109Z,0
2017-02-04T03:47:59.798Z,0
2017-02-04T03:49:10.048Z,0
2017-02-04T03:50:20.296Z,0
2017-02-04T03:51:30.926Z,0
2017-02-04T03:52:41.852Z,0
2017-02-04T03:53:52.127Z,0
2017-02-04T03:55:02.373Z,0
2017-02-04T03:56:12.631Z,0
2017-02-04T03:57:22.889Z,0
2017-02-04T03:58:33.002Z,0
2017-02-04T03:59:42.871Z,0
2017-02-04T04:00:53.514Z,0
2017-02-04T04:02:03.754Z,0
2017-02-04T04:03:14.400Z,0
2017-02-04T04:04:25.035Z,0
2017-02-04T04:05:35.288Z,0
2017-02-04T04:06:45.705Z,0
2017-02-04T04:07:55.947Z,0
2017-02-04T04:09:06.609Z,0
2017-02-04T04:10:16.829Z,0
2017-02-04T04:11:27.476Z,0
2017-02-04T04:12:38.123Z,0
2017-02-04T04:13:48.751Z,0
2017-02-04T04:14:59.395Z,0
2017-02-04T04:16:09.778Z,0
2017-02-04T04:17:20.046Z,0
2017-02-04T04:18:30.689Z,0
2017-02-04T04:19:41.341Z,0
2017-02-04T04:20:51.602Z,0
2017-02-04T04:22:02.597Z,0
2017-02-04T04:23:13.229Z,0
2017-02-04T04:24:23.867Z,0
2017-02-04T04:25:34.142Z,0
2017-02-04T04:26:44.477Z,0
2017-02-04T04:27:55.041Z,0
2017-02-04T04:29:05.300Z,0
2017-02-04T04:30:15.566Z,0
2017-02-04T04:31:25.809Z,0
2017-02-04T04:32:36.076Z,0
2017-02-04T04:33:46.979Z,0
2017-02-04T04:34:56.879Z,0
2017-02-04T04:36:06.744Z,0
2017-02-04T04:37:17.394Z,0
2017-02-04T04:38:28.078Z,0
2017-02-04T04:39:38.953Z,0
2017-02-04T04:40:48.844Z,0
2017-02-04T04:41:59.100Z,0
2017-02-04T04:43:09.761Z,0
2017-02-04T04:44:20.023Z,0
2017-02-04T04:45:30.616Z,0
2017-02-04T04:46:40.864Z,0
2017-02-04T04:47:51.143Z,0
2017-02-04T04:49:01.036Z,0
2017-02-04T04:50:11.292Z,0
2017-02-04T04:51:22.042Z,0
2017-02-04T04:52:32.734Z,0
2017-02-04T04:53:42.980Z,0
2017-02-04T04:54:53.649Z,0
2017-02-04T04:56:04.309Z,0
2017-02-04T04:57:14.949Z,0
2017-02-04T04:58:25.203Z,0
2017-02-04T04:59:35.462Z,0
2017-02-04T05:00:46.143Z,0
2017-02-04T05:01:56.038Z,0
2017-02-04T05:03:06.641Z,0
2017-02-04T05:04:16.522Z,0
2017-02-04T05:05:26.786Z,0
2017-02-04T05:06:37.025Z,0
2017-02-04T05:07:47.725Z,0
2017-02-04T05:08:57.831Z,0
2017-02-04T05:10:08.490Z,0
2017-02-04T05:11:19.159Z,0
2017-02-04T05:12:29.425Z,0
2017-02-04T05:13:39.681Z,0
2017-02-04T05:14:50.299Z,0
2017-02-04T05:16:00.925Z,0
2017-02-04T05:17:11.183Z,0
2017-02-04T05:18:21.417Z,0
2017-02-04T05:19:32.051Z,0
2017-02-04T05:20:42.400Z,0
2017-02-04T05:21:52.659Z,0
2017-02-04T05:23:02.913Z,0
2017-02-04T05:24:13.550Z,0
2017-02-04T05:25:24.492Z,0
2017-02-04T05:26:34.843Z,0
2017-02-04T05:27:44.700Z,0
2017-02-04T05:28:54.935Z,0
2017-02-04T05:30:04.807Z,0
2017-02-04T05:31:14.275Z,0
2017-02-04T05:32:24.483Z,0
2017-02-04T05:33:35.118Z,0
2017-02-04T05:34:45.783Z,0
2017-02-04T05:35:56.038Z,0
2017-02-04T05:37:06.291Z,0
2017-02-04T05:38:17.192Z,0
2017-02-04T05:39:27.826Z,0
2017-02-04T05:40:38.500Z,0
2017-02-04T05:41:47.971Z,0
2017-02-04T05:42:58.156Z,0
2017-02-04T05:44:08.674Z,0
2017-02-04T05:45:18.919Z,0
2017-02-04T05:46:29.180Z,0
2017-02-04T05:47:39.038Z,0
2017-02-04T05:48:49.703Z,0
2017-02-04T05:50:00.433Z,0
2017-02-04T05:51:09.891Z,0
2017-02-04T05:52:20.158Z,0
2017-02-04T05:53:30.413Z,0
2017-02-04T05:54:40.664Z,0
2017-02-04T05:55:51.000Z,0
2017-02-04T05:57:01.270Z,0
2017-02-04T05:58:11.509Z,0
2017-02-04T05:59:21.371Z,0
2017-02-04T06:00:32.015Z,0
2017-02-04T06:01:42.989Z,0
2017-02-04T06:02:53.641Z,0
2017-02-04T06:04:04.282Z,0
2017-02-04T06:05:14.915Z,0
2017-02-04T06:06:25.179Z,0
2017-02-04T06:07:35.193Z,0
2017-02-04T06:08:45.434Z,0
2017-02-04T06:09:55.304Z,0
2017-02-04T06:11:05.580Z,0
2017-02-04T06:12:15.836Z,0
2017-02-04T06:13:25.854Z,0
2017-02-04T06:14:36.497Z,0
2017-02-04T06:15:47.123Z,0
2017-02-04T06:16:57.383Z,0
2017-02-04T06:18:08.031Z,0
2017-02-04T06:19:18.420Z,0
2017-02-04T06:20:28.316Z,0
2017-02-04T06:21:38.960Z,0
2017-02-04T06:22:49.638Z,0
2017-02-04T06:24:00.174Z,0
2017-02-04T06:25:10.271Z,0
2017-02-04T06:26:20.899Z,0
2017-02-04T06:27:31.553Z,0
2017-02-04T06:28:41.814Z,0
2017-02-04T06:29:51.671Z,0
2017-02-04T06:31:02.427Z,0
2017-02-04T06:32:11.895Z,0
2017-02-04T06:33:20.967Z,0
2017-02-04T06:34:31.648Z,0
2017-02-04T06:35:41.902Z,0
2017-02-04T06:36:51.913Z,0
2017-02-04T06:38:02.191Z,0
2017-02-04T06:39:12.846Z,4
2017-02-04T06:40:22.708Z,0
2017-02-04T06:41:33.338Z,4
2017-02-04T06:42:43.840Z,4
2017-02-04T06:43:54.102Z,4
2017-02-04T06:45:04.742Z,4
2017-02-04T06:46:15.375Z,8
2017-02-04T06:47:25.655Z,8
2017-02-04T06:48:36.191Z,12
2017-02-04T06:49:46.053Z,12
2017-02-04T06:50:56.316Z,12
2017-02-04T06:52:06.572Z,16
2017-02-04T06:53:16.861Z,20
2017-02-04T06:54:27.693Z,24
2017-02-04T06:55:37.950Z,28
2017-02-04T06:56:48.590Z,28
2017-02-04T06:57:58.840Z,32
2017-02-04T06:59:08.328Z,36
2017-02-04T07:00:18.917Z,40
2017-02-04T07:01:29.590Z,48
2017-02-04T07:02:40.258Z,52
2017-02-04T07:03:50.499Z,60
2017-02-04T07:05:00.369Z,60
2017-02-04T07:06:11.386Z,64
2017-02-04T07:07:21.648Z,72
2017-02-04T07:08:31.505Z,76
2017-02-04T07:09:41.800Z,84
2017-02-04T07:10:52.045Z,88
2017-02-04T07:12:02.610Z,92
2017-02-04T07:13:12.879Z,96
2017-02-04T07:14:23.513Z,96
2017-02-04T07:15:33.794Z,100
2017-02-04T07:16:44.442Z,104
2017-02-04T07:17:55.231Z,108
2017-02-04T07:19:05.921Z,120
2017-02-04T07:20:16.177Z,128
2017-02-04T07:21:26.850Z,136
2017-02-04T07:22:37.506Z,144
2017-02-04T07:23:48.392Z,152
2017-02-04T07:24:58.642Z,160
2017-02-04T07:26:09.296Z,172
2017-02-04T07:27:19.935Z,180
2017-02-04T07:28:30.638Z,188
2017-02-04T07:29:41.249Z,196
2017-02-04T07:30:51.958Z,200
2017-02-04T07:32:02.229Z,208
2017-02-04T07:33:13.232Z,216
2017-02-04T07:34:23.172Z,224
2017-02-04T07:35:33.793Z,228
2017-02-04T07:36:43.717Z,224
2017-02-04T07:37:53.956Z,228
2017-02-04T07:39:04.403Z,228
2017-02-04T07:40:14.669Z,228
2017-02-04T07:41:25.686Z,232
2017-02-04T07:42:36.317Z,240
2017-02-04T07:43:46.555Z,248
2017-02-04T07:44:56.811Z,256
2017-02-04T07:46:07.457Z,268
2017-02-04T07:47:17.955Z,276
2017-02-04T07:48:28.594Z,288
2017-02-04T07:49:38.845Z,292
2017-02-04T07:50:49.150Z,296
2017-02-04T07:51:59.424Z,300
2017-02-04T07:53:10.238Z,300
2017-02-04T07:54:20.871Z,304
2017-02-04T07:55:31.204Z,308
2017-02-04T07:56:41.461Z,316
2017-02-04T07:57:51.749Z,324
2017-02-04T07:59:01.980Z,332
2017-02-04T08:00:12.617Z,344
2017-02-04T08:01:22.891Z,356
2017-02-04T08:02:33.535Z,368
2017-02-04T08:03:44.221Z,380
2017-02-04T08:04:54.761Z,392
2017-02-04T08:06:05.003Z,408
2017-02-04T08:07:15.662Z,416
2017-02-04T08:08:26.344Z,428
2017-02-04T08:09:36.211Z,436
2017-02-04T08:10:47.094Z,444
2017-02-04T08:11:57.789Z,444
2017-02-04T08:13:08.463Z,452
2017-02-04T08:14:19.116Z,464
2017-02-04T08:15:29.405Z,472
2017-02-04T08:16:39.817Z,480
2017-02-04T08:17:50.081Z,496
2017-02-04T08:19:00.773Z,508
2017-02-04T08:20:11.412Z,524
2017-02-04T08:21:22.086Z,536
2017-02-04T08:22:33.090Z,544
2017-02-04T08:23:43.773Z,552
2017-02-04T08:24:54.011Z,560
2017-02-04T08:26:04.275Z,560
2017-02-04T08:27:14.920Z,568
2017-02-04T08:28:24.944Z,572
2017-02-04T08:29:35.211Z,576
2017-02-04T08:30:45.890Z,576
2017-02-04T08:31:56.583Z,580
2017-02-04T08:33:07.267Z,580
2017-02-04T08:34:17.817Z,576
2017-02-04T08:35:27.671Z,576
2017-02-04T08:36:37.917Z,580
2017-02-04T08:37:48.165Z,588
2017-02-04T08:38:58.437Z,600
2017-02-04T08:40:09.178Z,624
2017-02-04T08:41:19.806Z,636
2017-02-04T08:42:29.645Z,644
2017-02-04T08:43:40.304Z,644
2017-02-04T08:44:50.962Z,644
2017-02-04T08:46:01.560Z,656
2017-02-04T08:47:12.211Z,668
2017-02-04T08:48:22.465Z,688
2017-02-04T08:49:32.729Z,704
2017-02-04T08:50:43.369Z,712
2017-02-04T08:51:53.966Z,724
2017-02-04T08:53:03.458Z,732
2017-02-04T08:54:13.714Z,732
2017-02-04T08:55:23.961Z,732
2017-02-04T08:56:34.247Z,728
2017-02-04T08:57:44.684Z,732
2017-02-04T08:58:55.307Z,736
2017-02-04T09:00:05.200Z,740
2017-02-04T09:01:15.455Z,744
2017-02-04T09:02:25.316Z,760
2017-02-04T09:03:35.517Z,780
2017-02-04T09:04:45.384Z,800
2017-02-04T09:05:55.656Z,812
2017-02-04T09:07:05.892Z,828
2017-02-04T09:08:16.609Z,844
2017-02-04T09:09:26.760Z,864
2017-02-04T09:10:37.005Z,876
2017-02-04T09:11:47.313Z,880
2017-02-04T09:12:57.651Z,876
2017-02-04T09:14:08.333Z,868
2017-02-04T09:15:18.468Z,856
2017-02-04T09:16:29.103Z,836
2017-02-04T09:17:39.780Z,820
2017-02-04T09:18:49.279Z,804
2017-02-04T09:19:59.958Z,780
2017-02-04T09:21:10.629Z,756
2017-02-04T09:22:21.329Z,724
2017-02-04T09:23:30.601Z,700
2017-02-04T09:24:40.534Z,668
2017-02-04T09:25:50.387Z,636
2017-02-04T09:27:01.300Z,600
2017-02-04T09:28:11.566Z,556
2017-02-04T09:29:22.227Z,528
2017-02-04T09:30:32.097Z,516
2017-02-04T09:31:42.923Z,508
2017-02-04T09:32:53.708Z,500
2017-02-04T09:34:04.370Z,492
2017-02-04T09:35:14.258Z,488
2017-02-04T09:36:24.926Z,488
2017-02-04T09:37:34.413Z,492
2017-02-04T09:38:44.572Z,508
2017-02-04T09:39:54.823Z,536
2017-02-04T09:41:05.071Z,568
2017-02-04T09:42:15.360Z,608
2017-02-04T09:43:25.617Z,660
2017-02-04T09:44:36.163Z,700
2017-02-04T09:45:46.438Z,740
2017-02-04T09:46:56.722Z,768
2017-02-04T09:48:07.407Z,796
2017-02-04T09:49:16.887Z,816
2017-02-04T09:50:27.462Z,836
2017-02-04T09:51:36.950Z,852
2017-02-04T09:52:47.604Z,868
2017-02-04T09:53:57.852Z,896
2017-02-04T09:55:08.516Z,928
2017-02-04T09:56:19.466Z,944
2017-02-04T09:57:29.338Z,976
2017-02-04T09:58:39.215Z,1016
2017-02-04T09:59:49.497Z,1060
2017-02-04T10:00:59.375Z,1080
2017-02-04T10:02:09.981Z,1100
2017-02-04T10:03:19.562Z,1124
2017-02-04T10:04:29.980Z,1132
2017-02-04T10:05:40.261Z,1136
2017-02-04T10:06:50.561Z,1144
2017-02-04T10:08:00.757Z,1152
2017-02-04T10:09:11.437Z,1164
2017-02-04T10:10:21.699Z,1164
2017-02-04T10:11:31.999Z,1172
2017-02-04T10:12:41.499Z,1180
2017-02-04T10:13:51.643Z,1192
2017-02-04T10:15:01.585Z,1196
2017-02-04T10:16:11.478Z,1204
2017-02-04T10:17:22.155Z,1208
2017-02-04T10:18:32.831Z,1216
2017-02-04T10:19:43.425Z,1232
2017-02-04T10:20:52.928Z,1256
2017-02-04T10:22:03.189Z,1268
2017-02-04T10:23:13.068Z,1268
2017-02-04T10:24:23.808Z,1264
2017-02-04T10:25:33.606Z,1264
2017-02-04T10:26:43.590Z,1268
2017-02-04T10:27:54.445Z,1264
2017-02-04T10:29:04.695Z,1264
2017-02-04T10:30:14.985Z,1264
2017-02-04T10:31:25.157Z,1268
2017-02-04T10:32:34.671Z,1260
2017-02-04T10:33:44.764Z,1236
2017-02-04T10:34:55.203Z,1212
2017-02-04T10:36:05.089Z,1200
2017-02-04T10:37:15.200Z,1204
2017-02-04T10:38:25.456Z,1208
2017-02-04T10:39:34.932Z,1204
2017-02-04T10:40:45.589Z,1192
2017-02-04T10:41:54.703Z,1180
2017-02-04T10:43:05.207Z,1168
2017-02-04T10:44:15.470Z,1164
2017-02-04T10:45:25.472Z,1164
2017-02-04T10:46:35.356Z,1164
2017-02-04T10:47:45.621Z,1160
2017-02-04T10:48:56.040Z,1148
2017-02-04T10:50:05.906Z,1148
2017-02-04T10:51:16.564Z,1152
2017-02-04T10:52:26.859Z,1156
2017-02-04T10:53:37.146Z,1164
2017-02-04T10:54:48.031Z,1160
2017-02-04T10:55:58.286Z,1160
2017-02-04T10:57:08.925Z,1152
2017-02-04T10:58:18.844Z,1148
2017-02-04T10:59:29.478Z,1148
2017-02-04T11:00:40.242Z,1156
2017-02-04T11:01:50.653Z,1160
2017-02-04T11:03:00.543Z,1164
2017-02-04T11:04:10.955Z,1168
2017-02-04T11:05:20.990Z,1164
2017-02-04T11:06:30.758Z,1144
2017-02-04T11:07:41.027Z,1112
2017-02-04T11:08:51.687Z,1068
2017-02-04T11:10:02.351Z,1016
2017-02-04T11:11:12.621Z,952
2017-02-04T11:12:23.524Z,896
2017-02-04T11:13:33.788Z,836
2017-02-04T11:14:43.647Z,796
2017-02-04T11:15:54.291Z,772
2017-02-04T11:17:04.158Z,748
2017-02-04T11:18:14.297Z,728
2017-02-04T11:19:24.574Z,700
2017-02-04T11:20:35.254Z,672
2017-02-04T11:21:45.895Z,644
2017-02-04T11:22:55.917Z,620
2017-02-04T11:24:06.428Z,608
2017-02-04T11:25:16.735Z,604
2017-02-04T11:26:27.010Z,628
2017-02-04T11:27:37.672Z,676
2017-02-04T11:28:47.959Z,700
2017-02-04T11:29:58.463Z,736
2017-02-04T11:31:09.144Z,768
2017-02-04T11:32:19.439Z,804
2017-02-04T11:33:29.802Z,840
2017-02-04T11:34:39.733Z,852
2017-02-04T11:35:50.163Z,820
2017-02-04T11:37:00.859Z,784
2017-02-04T11:38:10.740Z,736
2017-02-04T11:39:21.394Z,732
2017-02-04T11:40:31.946Z,700
2017-02-04T11:41:42.955Z,620
2017-02-04T11:42:53.481Z,580
2017-02-04T11:44:03.739Z,544
2017-02-04T11:45:14.070Z,508
2017-02-04T11:46:24.324Z,492
2017-02-04T11:47:34.575Z,500
2017-02-04T11:48:44.862Z,496
2017-02-04T11:49:55.507Z,476
2017-02-04T11:51:06.141Z,512
2017-02-04T11:52:16.404Z,532
2017-02-04T11:53:27.235Z,528
2017-02-04T11:54:37.901Z,512
2017-02-04T11:55:48.612Z,496
2017-02-04T11:56:58.998Z,488
2017-02-04T11:58:09.661Z,504
2017-02-04T11:59:20.072Z,500
2017-02-04T12:00:30.728Z,476
2017-02-04T12:01:40.980Z,452
2017-02-04T12:02:51.136Z,436
2017-02-04T12:04:01.409Z,428
2017-02-04T12:05:12.002Z,424
2017-02-04T12:06:22.650Z,424
2017-02-04T12:07:32.519Z,416
2017-02-04T12:08:43.193Z,420
2017-02-04T12:09:52.717Z,424
2017-02-04T12:11:03.510Z,432
2017-02-04T12:12:13.373Z,448
2017-02-04T12:13:24.024Z,448
2017-02-04T12:14:34.695Z,444
2017-02-04T12:15:44.963Z,432
2017-02-04T12:16:55.558Z,428
2017-02-04T12:18:06.231Z,448
2017-02-04T12:19:16.503Z,472
2017-02-04T12:20:26.769Z,480
2017-02-04T12:21:36.648Z,460
2017-02-04T12:22:47.225Z,452
2017-02-04T12:23:57.879Z,444
2017-02-04T12:25:07.741Z,436
2017-02-04T12:26:17.995Z,428
2017-02-04T12:27:27.917Z,420
2017-02-04T12:28:38.271Z,412
2017-02-04T12:29:48.933Z,408
2017-02-04T12:30:59.196Z,416
2017-02-04T12:32:09.500Z,420
2017-02-04T12:33:19.764Z,400
2017-02-04T12:34:30.382Z,344
2017-02-04T12:35:40.670Z,332
2017-02-04T12:36:51.315Z,352
2017-02-04T12:38:01.619Z,324
2017-02-04T12:39:10.714Z,316
2017-02-04T12:40:21.341Z,348
2017-02-04T12:41:32.008Z,372
2017-02-04T12:42:41.886Z,380
2017-02-04T12:43:51.756Z,384
2017-02-04T12:45:02.406Z,384
2017-02-04T12:46:12.427Z,376
2017-02-04T12:47:22.308Z,372
2017-02-04T12:48:32.600Z,372
2017-02-04T12:49:42.874Z,376
2017-02-04T12:50:52.744Z,376
2017-02-04T12:52:02.953Z,372
2017-02-04T12:53:12.799Z,368
2017-02-04T12:54:23.038Z,368
2017-02-04T12:55:33.299Z,364
2017-02-04T12:56:43.619Z,364
2017-02-04T12:57:54.008Z,372
2017-02-04T12:59:04.662Z,376
2017-02-04T13:00:14.941Z,380
2017-02-04T13:01:25.589Z,380
2017-02-04T13:02:35.833Z,384
2017-02-04T13:03:46.426Z,400
2017-02-04T13:04:57.066Z,404
2017-02-04T13:06:07.325Z,420
2017-02-04T13:07:17.192Z,416
2017-02-04T13:08:27.057Z,416
2017-02-04T13:09:37.517Z,416
2017-02-04T13:10:47.871Z,404
2017-02-04T13:11:58.147Z,388
2017-02-04T13:13:08.820Z,372
2017-02-04T13:14:19.126Z,356
2017-02-04T13:15:30.120Z,340
2017-02-04T13:16:40.001Z,332
2017-02-04T13:17:50.666Z,328
2017-02-04T13:19:01.322Z,332
2017-02-04T13:20:10.774Z,336
2017-02-04T13:21:20.559Z,336
2017-02-04T13:22:30.836Z,332
2017-02-04T13:23:41.135Z,324
2017-02-04T13:24:50.608Z,312
2017-02-04T13:26:00.883Z,292
2017-02-04T13:27:11.053Z,280
2017-02-04T13:28:21.755Z,284
2017-02-04T13:29:31.651Z,308
2017-02-04T13:30:41.516Z,328
2017-02-04T13:31:51.802Z,348
2017-02-04T13:33:02.847Z,364
2017-02-04T13:34:13.529Z,364
2017-02-04T13:35:24.217Z,340
2017-02-04T13:36:34.907Z,308
2017-02-04T13:37:44.796Z,280
2017-02-04T13:38:55.314Z,256
2017-02-04T13:40:06.008Z,228
2017-02-04T13:41:15.884Z,212
2017-02-04T13:42:26.518Z,204
2017-02-04T13:43:37.163Z,200
2017-02-04T13:44:47.660Z,196
2017-02-04T13:45:58.305Z,192
2017-02-04T13:47:08.589Z,196
2017-02-04T13:48:19.248Z,204
2017-02-04T13:49:29.142Z,204
2017-02-04T13:50:40.385Z,216
2017-02-04T13:51:50.252Z,228
2017-02-04T13:53:00.500Z,240
2017-02-04T13:54:11.142Z,236
2017-02-04T13:55:21.444Z,236
2017-02-04T13:56:32.447Z,232
2017-02-04T13:57:43.085Z,232
2017-02-04T13:58:53.331Z,224
2017-02-04T14:00:03.971Z,224
2017-02-04T14:01:13.430Z,220
2017-02-04T14:02:24.215Z,200
2017-02-04T14:03:34.856Z,192
2017-02-04T14:04:45.154Z,188
2017-02-04T14:05:55.795Z,184
2017-02-04T14:07:06.081Z,164
2017-02-04T14:08:16.577Z,156
2017-02-04T14:09:26.825Z,152
2017-02-04T14:10:37.067Z,148
2017-02-04T14:11:47.318Z,148
2017-02-04T14:12:57.969Z,152
2017-02-04T14:14:08.553Z,156
2017-02-04T14:15:19.220Z,156
2017-02-04T14:16:29.106Z,156
2017-02-04T14:17:39.752Z,152
2017-02-04T14:18:49.615Z,152
2017-02-04T14:19:59.959Z,148
2017-02-04T14:21:09.834Z,144
2017-02-04T14:22:19.678Z,140
2017-02-04T14:23:30.318Z,140
2017-02-04T14:24:40.566Z,140
2017-02-04T14:25:51.059Z,136
2017-02-04T14:27:01.322Z,136
2017-02-04T14:28:11.181Z,140
2017-02-04T14:29:21.488Z,140
2017-02-04T14:30:31.738Z,140
2017-02-04T14:31:42.141Z,140
2017-02-04T14:32:52.387Z,144
2017-02-04T14:34:02.646Z,160
2017-02-04T14:35:12.509Z,168
2017-02-04T14:36:23.140Z,172
2017-02-04T14:37:33.664Z,180
2017-02-04T14:38:43.911Z,180
2017-02-04T14:39:53.794Z,180
2017-02-04T14:41:04.044Z,192
2017-02-04T14:42:14.298Z,212
2017-02-04T14:43:25.285Z,228
2017-02-04T14:44:34.744Z,244
2017-02-04T14:45:45.372Z,256
2017-02-04T14:46:55.619Z,256
2017-02-04T14:48:05.866Z,256
2017-02-04T14:49:16.852Z,256
2017-02-04T14:50:26.709Z,252
2017-02-04T14:51:36.563Z,248
2017-02-04T14:52:46.824Z,244
2017-02-04T14:53:57.077Z,248
2017-02-04T14:55:07.982Z,260
2017-02-04T14:56:17.437Z,264
2017-02-04T14:57:27.678Z,264
2017-02-04T14:58:38.317Z,260
2017-02-04T14:59:48.961Z,264
2017-02-04T15:00:59.005Z,260
2017-02-04T15:02:08.897Z,264
2017-02-04T15:03:19.524Z,260
2017-02-04T15:04:29.770Z,280
2017-02-04T15:05:39.712Z,272
2017-02-04T15:06:50.116Z,268
2017-02-04T15:07:59.966Z,304
2017-02-04T15:09:10.229Z,296
2017-02-04T15:10:20.477Z,292
2017-02-04T15:11:30.732Z,320
2017-02-04T15:12:41.622Z,348
2017-02-04T15:13:51.490Z,344
2017-02-04T15:15:01.765Z,352
2017-02-04T15:16:12.023Z,356
2017-02-04T15:17:22.259Z,328
2017-02-04T15:18:33.014Z,308
2017-02-04T15:19:43.731Z,272
2017-02-04T15:20:53.979Z,268
2017-02-04T15:22:04.229Z,260
2017-02-04T15:23:14.884Z,248
2017-02-04T15:24:25.485Z,248
2017-02-04T15:25:36.136Z,236
2017-02-04T15:26:46.386Z,228
2017-02-04T15:27:56.635Z,216
2017-02-04T15:29:06.896Z,208
2017-02-04T15:30:17.083Z,212
2017-02-04T15:31:26.921Z,224
2017-02-04T15:32:37.555Z,240
2017-02-04T15:33:48.188Z,244
2017-02-04T15:34:58.457Z,240
2017-02-04T15:36:08.814Z,216
2017-02-04T15:37:19.053Z,216
2017-02-04T15:38:29.352Z,216
2017-02-04T15:39:39.612Z,188
2017-02-04T15:40:49.466Z,196
2017-02-04T15:41:59.881Z,180
2017-02-04T15:43:10.522Z,180
2017-02-04T15:44:21.175Z,188
2017-02-04T15:45:31.804Z,172
2017-02-04T15:46:41.678Z,168
2017-02-04T15:47:51.830Z,156
2017-02-04T15:49:02.077Z,152
2017-02-04T15:50:12.319Z,148
2017-02-04T15:51:22.981Z,140
2017-02-04T15:52:33.216Z,124
2017-02-04T15:53:44.002Z,120
2017-02-04T15:54:53.481Z,120
2017-02-04T15:56:03.739Z,108
2017-02-04T15:57:14.380Z,100
2017-02-04T15:58:25.016Z,92
2017-02-04T15:59:35.015Z,84
2017-02-04T16:00:44.866Z,80
2017-02-04T16:01:55.132Z,72
2017-02-04T16:03:05.778Z,68
2017-02-04T16:04:15.241Z,68
2017-02-04T16:05:25.876Z,56
2017-02-04T16:06:36.110Z,52
2017-02-04T16:07:46.371Z,56
2017-02-04T16:08:57.006Z,48
2017-02-04T16:10:07.629Z,40
2017-02-04T16:11:18.616Z,40
2017-02-04T16:12:28.486Z,36
2017-02-04T16:13:39.138Z,32
2017-02-04T16:14:49.787Z,32
2017-02-04T16:15:59.647Z,32
2017-02-04T16:17:09.745Z,28
2017-02-04T16:18:20.407Z,28
2017-02-04T16:19:30.694Z,20
2017-02-04T16:20:41.346Z,20
2017-02-04T16:21:51.253Z,20
2017-02-04T16:23:01.382Z,16
2017-02-04T16:24:10.877Z,16
2017-02-04T16:25:21.117Z,12
2017-02-04T16:26:31.402Z,12
2017-02-04T16:27:41.638Z,12
2017-02-04T16:28:52.055Z,8
2017-02-04T16:30:02.730Z,8
2017-02-04T16:31:13.368Z,12
2017-02-04T16:32:23.624Z,8
2017-02-04T16:33:33.903Z,8
2017-02-04T16:34:44.505Z,8
2017-02-04T16:35:53.598Z,4
2017-02-04T16:37:03.490Z,8